Time;durP1;ratioP1;P1;durP2;ratioP2;P2;SDS_P1;SDS_P2;PMS_P1;PMS_P2;Temp;Humidity;BMP_temperature;BMP_pressure;BME280_temperature;BME280_humidity;BME280_pressure;Samples;Min_cycle;Max_cycle;Signal;HPM_P1;HPM_P2
2023/05/28 00:01:15;;;;;;;12.18;5.47;;;;;;;11.19;80.93;99672.66;5098204;28;20035;-63
2023/05/28 00:04:00;;;;;;;13.85;5.20;;;;;;;11.05;77.01;99672.06;5103045;28;20050;-63
2023/05/28 00:06:48;;;;;;;14.20;4.90;;;;;;;10.90;78.45;99669.84;5101740;28;20192;-63
2023/05/28 00:09:34;;;;;;;11.75;5.45;;;;;;;11.01;80.72;99671.72;5099722;28;20589;-63
2023/05/28 00:12:01;;;;;;;10.50;5.07;;;;;;;11.09;78.71;99667.88;5095917;28;20108;-63
2023/05/28 00:14:28;;;;;;;13.32;5.22;;;;;;;11.02;78.61;99665.31;5095055;28;20060;-62
2023/05/28 00:16:56;;;;;;;14.00;5.30;;;;;;;10.83;77.65;99669.16;5106278;28;20047;-63
2023/05/28 00:19:23;;;;;;;13.93;5.18;;;;;;;10.76;78.49;99663.94;5101775;28;20052;-63
2023/05/28 00:21:50;;;;;;;12.80;4.97;;;;;;;10.94;81.53;99664.84;5103084;28;20306;-63
2023/05/28 00:24:17;;;;;;;16.92;5.82;;;;;;;10.88;79.00;99665.78;5102762;28;20067;-63
2023/05/28 00:26:45;;;;;;;10.82;5.85;;;;;;;10.79;81.61;99663.47;5096663;28;20051;-62
2023/05/28 00:29:13;;;;;;;10.77;5.82;;;;;;;10.67;79.56;99662.63;5096704;28;20051;-63
2023/05/28 00:31:40;;;;;;;13.07;5.13;;;;;;;10.61;79.26;99666.25;5080710;28;20109;-63
2023/05/28 00:34:10;;;;;;;11.40;5.25;;;;;;;10.69;82.15;99665.09;5083660;28;20044;-63
2023/05/28 00:36:37;;;;;;;11.73;5.30;;;;;;;10.62;78.60;99662.50;5095201;28;20501;-63
2023/05/28 00:39:05;;;;;;;14.57;5.47;;;;;;;10.79;80.34;99657.28;5081158;28;20040;-63
2023/05/28 00:41:35;;;;;;;14.23;5.15;;;;;;;10.83;77.78;99653.06;5085896;28;20048;-63
2023/05/28 00:44:02;;;;;;;13.93;5.00;;;;;;;10.90;79.07;99652.97;5082476;28;20039;-63
2023/05/28 00:46:29;;;;;;;10.93;5.90;;;;;;;10.87;79.10;99656.94;5105227;28;20234;-63
2023/05/28 00:48:57;;;;;;;17.05;5.28;;;;;;;10.80;81.48;99664.25;5088273;28;20040;-62
2023/05/28 00:51:25;;;;;;;12.27;6.10;;;;;;;10.59;80.12;99657.63;5080222;28;20142;-63
2023/05/28 00:53:52;;;;;;;15.43;6.18;;;;;;;10.36;82.48;99658.41;5090121;28;20100;-63
2023/05/28 00:56:19;;;;;;;14.82;5.28;;;;;;;10.40;80.86;99656.88;5071804;28;20044;-63
2023/05/28 00:58:48;;;;;;;12.52;5.38;;;;;;;10.31;81.00;99656.41;5088185;28;20071;-63
2023/05/28 01:01:15;;;;;;;18.08;6.00;;;;;;;10.43;80.83;99656.41;5101186;28;20036;-63
2023/05/28 01:03:42;;;;;;;12.15;4.82;;;;;;;10.40;81.61;99658.75;5103198;28;20073;-62
2023/05/28 01:06:12;;;;;;;11.88;5.75;;;;;;;10.29;82.09;99660.38;5101725;28;20055;-62
2023/05/28 01:08:41;;;;;;;12.23;6.32;;;;;;;10.19;82.95;99668.13;5086334;28;20506;-62
2023/05/28 01:11:10;;;;;;;12.45;7.05;;;;;;;10.03;83.98;99659.69;5103109;28;20117;-63
2023/05/28 01:13:40;;;;;;;15.43;5.85;;;;;;;9.80;86.39;99664.97;5083386;28;20513;-63
2023/05/28 01:16:07;;;;;;;15.20;5.57;;;;;;;9.81;85.91;99666.59;5100599;28;20044;-63
2023/05/28 01:18:34;;;;;;;11.38;5.00;;;;;;;10.06;85.41;99661.09;5099505;28;20055;-63
2023/05/28 01:21:02;;;;;;;10.45;5.18;;;;;;;9.90;84.82;99654.53;5100803;28;20489;-63
2023/05/28 01:23:30;;;;;;;13.38;5.43;;;;;;;10.12;86.33;99658.31;5077074;28;20513;-62
2023/05/28 01:26:01;;;;;;;15.25;6.32;;;;;;;9.93;83.55;99648.69;5089041;28;20046;-63
2023/05/28 01:28:28;;;;;;;14.25;5.75;;;;;;;9.93;86.43;99654.06;5096767;28;20111;-62
2023/05/28 01:30:55;;;;;;;10.23;5.60;;;;;;;9.92;85.08;99649.75;5080961;28;20054;-62
2023/05/28 01:33:22;;;;;;;16.88;5.55;;;;;;;9.79;85.74;99653.44;5097457;28;20131;-63
2023/05/28 01:35:50;;;;;;;10.00;5.43;;;;;;;9.81;84.41;99645.16;5087691;28;20130;-62
2023/05/28 01:38:17;;;;;;;19.33;5.65;;;;;;;9.94;83.85;99650.34;5082482;28;20040;-63
2023/05/28 01:40:46;;;;;;;11.65;5.25;;;;;;;9.79;84.58;99650.75;5079013;28;20055;-63
2023/05/28 01:43:14;;;;;;;13.27;6.13;;;;;;;9.77;85.33;99649.34;5076441;28;20104;-64
2023/05/28 01:45:42;;;;;;;12.82;5.90;;;;;;;9.72;86.31;99648.16;5099225;28;20051;-62
2023/05/28 01:48:12;;;;;;;11.95;5.30;;;;;;;9.52;87.26;99642.25;5081153;28;20040;-62
2023/05/28 01:50:39;;;;;;;14.13;5.15;;;;;;;9.68;86.07;99641.66;5093025;28;20085;-64
2023/05/28 01:53:06;;;;;;;14.48;5.78;;;;;;;9.57;86.58;99638.91;5083475;28;20130;-64
2023/05/28 01:55:33;;;;;;;12.05;5.13;;;;;;;9.81;85.55;99643.31;5095574;28;20040;-64
2023/05/28 01:58:00;;;;;;;11.52;5.05;;;;;;;9.85;85.30;99641.00;5105019;28;20375;-64
2023/05/28 02:00:30;;;;;;;10.00;4.90;;;;;;;9.71;86.28;99646.53;5077009;28;20044;-64
2023/05/28 02:02:57;;;;;;;12.75;5.55;;;;;;;9.50;86.74;99641.66;5094997;28;20097;-64
2023/05/28 02:05:24;;;;;;;10.57;5.38;;;;;;;9.33;88.31;99637.97;5080802;28;20040;-63
2023/05/28 02:07:53;;;;;;;16.45;6.38;;;;;;;9.21;89.06;99636.06;5089483;28;20043;-64
2023/05/28 02:10:21;;;;;;;14.27;5.10;;;;;;;9.60;86.43;99625.88;5063634;28;20105;-64
2023/05/28 02:12:48;;;;;;;10.60;5.63;;;;;;;9.62;86.18;99626.47;5093125;28;20161;-63
2023/05/28 02:15:15;;;;;;;11.45;4.90;;;;;;;9.65;90.28;99626.03;5099432;28;20050;-63
2023/05/28 02:17:45;;;;;;;12.13;5.35;;;;;;;9.52;86.90;99628.06;5079541;28;20119;-63
2023/05/28 02:20:12;;;;;;;11.88;5.22;;;;;;;9.45;88.03;99622.78;5079802;28;20539;-63
2023/05/28 02:22:41;;;;;;;13.82;5.35;;;;;;;9.34;88.50;99620.88;5081740;28;20048;-63
2023/05/28 02:25:09;;;;;;;11.88;6.22;;;;;;;9.31;89.27;99626.66;5104373;28;20067;-63
2023/05/28 02:27:36;;;;;;;13.85;5.43;;;;;;;9.14;89.29;99613.91;5098563;28;20060;-63
2023/05/28 02:30:03;;;;;;;13.63;5.60;;;;;;;9.29;90.05;99621.56;5099499;28;20493;-63
2023/05/28 02:32:31;;;;;;;13.30;6.13;;;;;;;9.25;90.24;99625.72;5094280;28;20044;-63
2023/05/28 02:35:02;;;;;;;11.75;5.93;;;;;;;9.00;90.21;99628.47;5081081;28;20490;-63
2023/05/28 02:37:30;;;;;;;12.13;5.87;;;;;;;8.58;93.22;99626.41;5098044;28;20122;-63
2023/05/28 02:39:58;;;;;;;10.68;5.43;;;;;;;8.87;96.42;99623.28;5084459;28;20300;-63
2023/05/28 02:42:25;;;;;;;13.52;5.55;;;;;;;8.89;93.46;99626.53;5077616;28;20085;-62
2023/05/28 02:44:52;;;;;;;12.93;6.15;;;;;;;8.71;92.31;99628.16;5092512;28;20047;-64
2023/05/28 02:47:22;;;;;;;15.18;5.57;;;;;;;8.89;93.67;99631.88;5075421;28;20109;-64
2023/05/28 02:49:50;;;;;;;12.63;5.10;;;;;;;8.92;92.33;99626.09;5078127;28;20056;-64
2023/05/28 02:52:18;;;;;;;13.18;5.53;;;;;;;8.60;92.90;99618.97;5081639;28;20059;-63
2023/05/28 02:54:47;;;;;;;12.93;5.28;;;;;;;8.78;93.34;99620.06;5104375;28;20085;-64
2023/05/28 02:57:14;;;;;;;13.05;5.55;;;;;;;8.88;92.85;99624.88;5093219;28;20040;-63
2023/05/28 02:59:42;;;;;;;16.77;6.65;;;;;;;8.75;91.60;99625.84;5083152;28;20051;-64
2023/05/28 03:02:09;;;;;;;10.20;5.05;;;;;;;8.42;93.40;99619.75;5075078;28;20498;-63
2023/05/28 03:04:37;;;;;;;11.48;5.65;;;;;;;8.36;95.17;99617.94;5081284;28;20058;-63
2023/05/28 03:07:04;;;;;;;10.98;4.97;;;;;;;8.40;94.31;99613.00;5083952;28;20047;-63
2023/05/28 03:09:35;;;;;;;15.07;5.63;;;;;;;8.57;93.79;99613.28;5078961;28;20055;-63
2023/05/28 03:12:03;;;;;;;14.40;5.20;;;;;;;8.91;91.44;99613.75;5087765;28;20092;-63
2023/05/28 03:14:30;;;;;;;16.05;5.13;;;;;;;8.92;90.43;99616.22;5077110;28;20060;-63
2023/05/28 03:16:58;;;;;;;11.77;5.55;;;;;;;8.82;91.08;99624.75;5081411;28;20036;-63
2023/05/28 03:19:26;;;;;;;14.75;5.97;;;;;;;8.73;91.75;99622.56;5080230;28;20281;-63
2023/05/28 03:21:53;;;;;;;15.05;5.57;;;;;;;8.42;92.82;99627.78;5076383;28;20036;-63
2023/05/28 03:24:22;;;;;;;14.73;6.13;;;;;;;8.47;95.10;99618.31;5084043;28;20093;-63
2023/05/28 03:26:54;;;;;;;16.17;5.32;;;;;;;8.57;95.28;99623.97;5085809;28;20048;-63
2023/05/28 03:29:24;;;;;;;12.52;5.20;;;;;;;8.58;95.92;99620.25;5085083;28;20040;-64
2023/05/28 03:32:03;;;;;;;10.13;5.20;;;;;;;8.76;94.43;99628.31;5098689;28;20054;-63
2023/05/28 03:34:30;;;;;;;13.25;5.45;;;;;;;8.57;91.75;99621.28;5077150;28;20048;-63
2023/05/28 03:36:58;;;;;;;13.43;5.80;;;;;;;8.52;93.06;99627.28;5088447;28;20440;-63
2023/05/28 03:39:25;;;;;;;15.43;5.78;;;;;;;8.35;93.72;99632.31;5082258;28;20036;-63
2023/05/28 03:41:55;;;;;;;14.93;5.50;;;;;;;8.39;95.39;99624.72;5086829;28;20078;-63
2023/05/28 03:44:26;;;;;;;18.00;5.47;;;;;;;9.05;94.35;99625.94;5085091;28;20046;-63
2023/05/28 03:46:54;;;;;;;11.98;5.32;;;;;;;9.23;89.83;99623.25;5109191;28;20470;-63
2023/05/28 03:49:21;;;;;;;13.35;5.60;;;;;;;9.26;90.23;99622.81;5101929;28;20125;-64
2023/05/28 03:51:48;;;;;;;12.23;5.32;;;;;;;10.33;85.47;99624.88;5080781;28;20052;-63
2023/05/28 03:54:16;;;;;;;10.90;4.97;;;;;;;11.09;79.23;99634.88;5103243;28;20079;-63
2023/05/28 03:56:44;;;;;;;11.65;5.03;;;;;;;11.39;77.11;99632.81;5087401;28;20090;-64
2023/05/28 03:59:13;;;;;;;9.20;4.70;;;;;;;11.89;74.34;99636.75;5101495;28;20126;-63
2023/05/28 04:01:40;;;;;;;10.30;5.07;;;;;;;12.22;72.56;99635.97;5095912;28;20050;-63
2023/05/28 04:04:08;;;;;;;11.93;5.10;;;;;;;11.50;74.72;99636.50;5086900;28;20048;-63
2023/05/28 04:06:35;;;;;;;10.18;4.88;;;;;;;11.89;75.13;99644.81;5101571;28;20146;-64
2023/05/28 04:09:02;;;;;;;13.93;4.68;;;;;;;13.27;68.12;99646.16;5086054;28;20047;-63
2023/05/28 04:11:30;;;;;;;11.15;5.25;;;;;;;14.44;63.21;99641.16;5078718;28;20049;-63
2023/05/28 04:13:57;;;;;;;9.85;4.82;;;;;;;14.11;63.05;99640.34;5076197;28;20048;-63
2023/05/28 04:16:26;;;;;;;10.52;5.18;;;;;;;14.32;63.24;99638.63;5078907;28;20506;-64
2023/05/28 04:18:53;;;;;;;8.40;4.88;;;;;;;14.58;60.41;99638.88;5070287;28;20044;-63
2023/05/28 04:21:21;;;;;;;10.77;4.65;;;;;;;15.22;59.18;99641.41;5078952;28;20041;-63
2023/05/28 04:23:48;;;;;;;13.48;4.82;;;;;;;15.19;59.04;99633.84;5081330;28;20772;-63
2023/05/28 04:26:16;;;;;;;9.20;5.22;;;;;;;15.92;56.57;99633.84;5077418;28;20900;-63
2023/05/28 04:28:43;;;;;;;7.20;4.50;;;;;;;15.79;55.30;99639.75;5080491;28;20036;-63
2023/05/28 04:31:10;;;;;;;9.93;5.10;;;;;;;15.74;55.43;99645.16;5082364;28;20040;-63
2023/05/28 04:33:39;;;;;;;12.43;5.43;;;;;;;15.89;55.45;99638.97;5080567;28;20391;-63
2023/05/28 04:36:09;;;;;;;9.23;4.68;;;;;;;17.00;53.30;99641.97;5082491;28;20039;-63
2023/05/28 04:38:36;;;;;;;10.88;4.80;;;;;;;16.90;52.70;99641.97;5080477;28;20040;-63
2023/05/28 04:41:04;;;;;;;8.32;4.65;;;;;;;17.40;51.63;99641.00;5078653;28;20127;-63
2023/05/28 04:43:33;;;;;;;10.05;4.75;;;;;;;17.79;50.86;99642.97;5079595;28;20056;-63
2023/05/28 04:46:01;;;;;;;8.77;4.80;;;;;;;17.69;50.58;99648.47;5085961;28;20070;-63
2023/05/28 04:48:28;;;;;;;10.95;4.90;;;;;;;17.46;51.35;99648.03;5083589;28;20047;-63
2023/05/28 04:50:56;;;;;;;11.43;4.80;;;;;;;17.74;51.15;99648.44;5077090;28;20060;-63
2023/05/28 04:53:23;;;;;;;10.30;4.53;;;;;;;18.56;49.59;99649.78;5076586;28;20526;-63
2023/05/28 04:55:51;;;;;;;10.30;4.63;;;;;;;19.02;47.82;99646.66;5080600;28;20074;-63
2023/05/28 04:58:18;;;;;;;9.48;4.88;;;;;;;19.37;46.93;99648.97;5082310;28;20562;-63
2023/05/28 05:00:46;;;;;;;10.15;4.57;;;;;;;19.71;46.09;99647.22;5087004;28;20068;-63
2023/05/28 05:03:14;;;;;;;9.32;4.63;;;;;;;20.19;44.99;99647.06;5073002;28;20309;-63
2023/05/28 05:05:41;;;;;;;9.95;4.75;;;;;;;19.89;45.33;99654.56;5078097;28;20059;-63
2023/05/28 05:08:13;;;;;;;14.05;4.82;;;;;;;19.81;45.45;99652.50;5076289;28;20098;-63
2023/05/28 05:10:40;;;;;;;8.48;4.47;;;;;;;19.87;45.75;99655.97;5078104;28;20052;-63
2023/05/28 05:13:07;;;;;;;11.43;5.15;;;;;;;19.75;45.94;99650.97;5075897;28;20048;-63
2023/05/28 05:15:35;;;;;;;8.38;4.70;;;;;;;19.89;45.53;99654.56;5076977;28;20040;-63
2023/05/28 05:18:02;;;;;;;9.63;5.30;;;;;;;21.16;43.88;99650.84;5078309;28;20173;-63
2023/05/28 05:20:29;;;;;;;9.82;5.07;;;;;;;21.07;43.38;99656.19;5069169;28;20372;-63
2023/05/28 05:22:56;;;;;;;11.05;4.95;;;;;;;21.16;43.13;99659.03;5080894;28;20101;-63
2023/05/28 05:25:25;;;;;;;9.07;4.70;;;;;;;21.22;42.98;99652.38;5074340;28;20514;-63
2023/05/28 05:27:54;;;;;;;14.10;4.85;;;;;;;21.57;42.94;99652.78;5078164;28;20405;-63
2023/05/28 05:30:21;;;;;;;12.50;5.15;;;;;;;22.49;41.14;99650.72;5078539;28;20052;-63
2023/05/28 05:32:48;;;;;;;9.70;4.60;;;;;;;21.39;43.39;99656.44;5078994;28;20044;-63
2023/05/28 05:35:16;;;;;;;10.65;5.28;;;;;;;22.33;41.28;99661.19;5075813;28;20060;-63
2023/05/28 05:38:03;;;;;;;8.68;4.55;;;;;;;21.62;42.12;99666.31;5082661;28;20043;-63
2023/05/28 05:40:52;;;;;;;11.63;5.32;;;;;;;22.16;41.24;99670.00;5074012;28;20042;-63
2023/05/28 05:43:33;;;;;;;15.07;5.35;;;;;;;22.79;39.69;99665.50;5079411;28;20055;-63
2023/05/28 05:46:00;;;;;;;12.00;5.10;;;;;;;22.38;40.20;99673.91;5079167;28;20070;-63
2023/05/28 05:48:27;;;;;;;10.00;4.97;;;;;;;22.31;40.65;99668.88;5072001;28;20512;-63
2023/05/28 05:50:55;;;;;;;11.57;5.43;;;;;;;22.75;39.58;99667.25;5083288;28;20047;-63
2023/05/28 05:53:23;;;;;;;10.55;5.07;;;;;;;23.61;39.47;99668.75;5081987;28;20040;-64
2023/05/28 05:55:50;;;;;;;13.00;5.65;;;;;;;24.20;38.04;99667.53;5082154;28;20032;-63
2023/05/28 05:58:19;;;;;;;11.77;5.20;;;;;;;24.39;37.24;99675.41;5083366;28;20565;-63
2023/05/28 06:00:48;;;;;;;9.52;5.38;;;;;;;22.82;39.76;99685.94;5080276;28;20382;-63
2023/05/28 06:03:15;;;;;;;11.43;4.90;;;;;;;23.81;40.04;99678.31;5073919;28;20057;-63
2023/05/28 06:06:18;;;;;;;12.48;5.57;;;;;;;24.08;38.92;99676.41;5009026;28;20338;-63
2023/05/28 06:09:06;;;;;;;11.07;5.43;;;;;;;24.23;38.42;99667.69;5068927;28;20047;-64
2023/05/28 06:11:46;;;;;;;13.68;4.95;;;;;;;24.78;37.93;99670.88;5081568;28;20047;-62
2023/05/28 06:14:14;;;;;;;10.23;4.90;;;;;;;23.67;40.12;99669.41;5085265;28;20456;-64
2023/05/28 06:16:43;;;;;;;15.30;5.68;;;;;;;24.60;39.20;99670.91;5077844;28;20421;-63
2023/05/28 06:19:10;;;;;;;11.73;5.38;;;;;;;24.17;39.51;99663.53;5071628;28;20052;-63
2023/05/28 06:21:37;;;;;;;9.48;5.53;;;;;;;24.44;38.11;99667.06;5072973;28;20040;-63
2023/05/28 06:24:08;;;;;;;9.88;5.57;;;;;;;24.49;39.50;99664.19;5071993;28;20048;-63
2023/05/28 06:26:37;;;;;;;9.55;5.38;;;;;;;24.90;38.10;99669.06;5071011;28;20075;-63
2023/05/28 06:29:06;;;;;;;11.70;6.05;;;;;;;25.35;37.73;99667.78;5085609;28;20047;-63
2023/05/28 06:31:34;;;;;;;13.23;5.45;;;;;;;24.83;37.44;99663.28;5078471;28;20358;-63
2023/05/28 06:34:03;;;;;;;13.43;5.35;;;;;;;25.27;37.12;99671.38;5077847;28;20110;-64
2023/05/28 06:36:30;;;;;;;11.55;6.20;;;;;;;25.73;35.84;99666.91;5075092;28;20059;-63
2023/05/28 06:38:57;;;;;;;11.70;5.90;;;;;;;26.17;34.30;99664.69;5078124;28;20148;-63
2023/05/28 06:41:25;;;;;;;12.18;5.50;;;;;;;25.60;34.93;99661.34;5078645;28;20563;-63
2023/05/28 06:43:53;;;;;;;12.63;5.85;;;;;;;25.61;35.22;99665.72;5079333;28;20063;-64
2023/05/28 06:46:35;;;;;;;10.15;5.85;;;;;;;24.98;36.72;99670.16;5075799;28;20047;-63
2023/05/28 06:49:03;;;;;;;12.38;5.75;;;;;;;25.99;36.01;99662.09;5077079;28;20044;-63
2023/05/28 06:51:31;;;;;;;9.55;5.22;;;;;;;26.03;35.26;99665.78;5061830;28;20131;-63
2023/05/28 06:54:02;;;;;;;16.10;5.70;;;;;;;25.97;36.14;99667.09;5076896;28;20150;-63
2023/05/28 06:56:32;;;;;;;11.43;5.68;;;;;;;26.76;34.48;99674.66;5076838;28;20055;-63
2023/05/28 06:59:17;;;;;;;11.32;5.07;;;;;;;26.50;35.45;99669.41;5079594;28;20052;-63
2023/05/28 07:02:12;;;;;;;13.13;5.65;;;;;;;26.08;36.11;99669.44;5050828;28;20117;-63
2023/05/28 07:04:59;;;;;;;10.63;5.45;;;;;;;27.05;35.12;99666.22;5079146;28;20413;-63
2023/05/28 07:07:31;;;;;;;14.38;5.90;;;;;;;25.85;36.19;99669.78;5079436;28;20068;-63
2023/05/28 07:09:58;;;;;;;9.15;5.32;;;;;;;24.71;37.81;99666.72;5088790;28;20500;-63
2023/05/28 07:12:25;;;;;;;10.68;5.78;;;;;;;26.59;34.95;99681.16;5074284;28;20075;-63
2023/05/28 07:14:56;;;;;;;10.45;5.20;;;;;;;27.23;34.45;99677.88;5082128;28;20516;-63
2023/05/28 07:17:24;;;;;;;10.93;5.28;;;;;;;27.11;34.79;99669.56;5082137;28;20050;-62
2023/05/28 07:19:52;;;;;;;11.90;5.68;;;;;;;26.66;35.56;99675.91;5078019;28;20557;-63
2023/05/28 07:22:30;;;;;;;11.27;5.40;;;;;;;26.11;37.39;99671.50;5081932;28;20044;-63
2023/05/28 07:24:57;;;;;;;11.73;5.68;;;;;;;27.32;35.93;99669.50;5093717;28;20255;-63
2023/05/28 07:27:24;;;;;;;11.95;5.32;;;;;;;27.06;36.46;99672.56;5074026;28;20414;-63
2023/05/28 07:29:51;;;;;;;10.30;5.10;;;;;;;26.94;36.65;99681.56;5079570;28;20528;-63
2023/05/28 07:32:20;;;;;;;9.23;5.00;;;;;;;27.90;35.53;99683.09;5091308;28;20366;-63
2023/05/28 07:34:48;;;;;;;10.07;5.30;;;;;;;27.83;35.57;99689.22;5090337;28;20048;-63
2023/05/28 07:37:16;;;;;;;12.50;5.57;;;;;;;27.88;35.56;99688.16;5075475;28;20070;-63
2023/05/28 07:39:43;;;;;;;12.95;4.97;;;;;;;26.23;37.35;99688.88;5065506;28;20047;-63
2023/05/28 07:42:11;;;;;;;10.10;5.20;;;;;;;27.44;35.82;99685.22;5079649;28;20477;-63
2023/05/28 07:44:41;;;;;;;9.50;5.03;;;;;;;27.18;36.59;99685.50;5077727;28;20124;-63
2023/05/28 07:47:08;;;;;;;11.15;4.90;;;;;;;26.46;36.94;99683.03;5102642;28;20100;-63
2023/05/28 07:49:55;;;;;;;10.57;5.05;;;;;;;28.10;35.15;99675.81;5099513;28;20039;-63
2023/05/28 07:52:30;;;;;;;9.82;4.75;;;;;;;28.45;33.95;99676.06;5085029;28;20057;-63
2023/05/28 07:54:58;;;;;;;11.15;5.20;;;;;;;27.53;35.71;99669.34;5075640;28;20544;-63
2023/05/28 07:57:26;;;;;;;12.15;5.05;;;;;;;27.23;34.29;99671.53;5076986;28;20070;-63
2023/05/28 07:59:53;;;;;;;11.77;5.13;;;;;;;27.41;35.20;99672.09;5098075;28;20478;-63
2023/05/28 08:02:20;;;;;;;11.50;4.85;;;;;;;27.84;33.82;99670.75;5079122;28;20040;-63
2023/05/28 08:04:48;;;;;;;10.13;4.78;;;;;;;27.34;34.50;99666.41;5098503;28;22172;-62
2023/05/28 08:07:17;;;;;;;10.98;4.47;;;;;;;26.21;34.81;99674.66;5078917;28;20071;-62
2023/05/28 08:09:44;;;;;;;12.48;4.70;;;;;;;27.29;34.45;99665.47;5077287;28;20079;-62
2023/05/28 08:12:13;;;;;;;10.93;5.07;;;;;;;26.58;33.98;99668.53;5077528;28;20086;-62
2023/05/28 08:14:40;;;;;;;13.38;4.90;;;;;;;25.33;36.03;99661.81;5070843;28;20048;-62
2023/05/28 08:17:10;;;;;;;8.95;4.30;;;;;;;25.46;36.11;99665.47;5083321;28;20418;-62
2023/05/28 08:19:50;;;;;;;13.75;4.97;;;;;;;26.74;34.86;99666.75;5105889;28;20040;-62
2023/05/28 08:22:36;;;;;;;9.20;4.53;;;;;;;27.17;35.03;99654.44;5075835;28;20064;-62
2023/05/28 08:25:04;;;;;;;11.07;4.80;;;;;;;27.45;34.45;99656.53;5084436;28;20044;-63
2023/05/28 08:27:32;;;;;;;13.23;4.75;;;;;;;26.69;34.52;99658.72;5092943;28;20044;-62
2023/05/28 08:29:59;;;;;;;13.60;4.78;;;;;;;27.00;34.67;99654.66;5102056;28;20083;-63
2023/05/28 08:32:26;;;;;;;11.18;5.03;;;;;;;27.06;34.55;99650.53;5081792;28;20040;-62
2023/05/28 08:34:53;;;;;;;9.98;4.72;;;;;;;27.18;34.63;99647.81;5095870;28;20043;-62
2023/05/28 08:37:21;;;;;;;10.55;4.68;;;;;;;27.86;33.87;99649.16;5090213;28;20054;-62
2023/05/28 08:40:10;;;;;;;8.93;4.35;;;;;;;27.59;33.15;99651.47;5102272;28;20067;-62
2023/05/28 08:42:38;;;;;;;13.20;4.80;;;;;;;28.59;32.22;99643.38;5081082;28;20046;-62
2023/05/28 08:45:07;;;;;;;13.32;4.70;;;;;;;27.95;33.63;99647.84;5085463;28;20554;-62
2023/05/28 08:47:37;;;;;;;11.15;4.80;;;;;;;27.49;34.03;99646.44;5095856;27;20063;-63
2023/05/28 08:50:10;;;;;;;10.60;4.68;;;;;;;27.04;35.18;99652.81;5087161;28;20485;-62
2023/05/28 08:52:46;;;;;;;10.45;4.80;;;;;;;27.54;34.23;99643.44;5084269;28;20046;-63
2023/05/28 08:55:15;;;;;;;11.10;4.78;;;;;;;25.48;35.58;99639.28;5083595;28;20124;-62
2023/05/28 08:57:47;;;;;;;17.73;5.18;;;;;;;24.97;37.82;99633.72;5080481;28;20123;-62
2023/05/28 09:00:15;;;;;;;10.98;4.90;;;;;;;27.36;33.42;99626.38;5084129;28;20040;-62
2023/05/28 09:03:14;;;;;;;13.07;4.93;;;;;;;27.50;33.70;99631.50;5094531;28;20536;-62
2023/05/28 09:05:41;;;;;;;9.88;4.80;;;;;;;27.78;33.06;99625.25;5088000;28;20066;-62
2023/05/28 09:08:09;;;;;;;9.93;4.45;;;;;;;28.07;32.36;99627.72;5087394;28;20036;-62
2023/05/28 09:10:38;;;;;;;12.35;4.65;;;;;;;28.35;31.49;99615.91;5085773;28;20048;-63
2023/05/28 09:13:05;;;;;;;10.30;4.88;;;;;;;27.05;32.89;99618.66;5072766;28;20101;-62
2023/05/28 09:15:33;;;;;;;10.68;4.32;;;;;;;27.35;32.92;99623.97;5076858;28;20525;-62
2023/05/28 09:18:06;;;;;;;12.38;4.68;;;;;;;26.37;33.86;99630.09;5079316;28;20508;-62
2023/05/28 09:20:33;;;;;;;9.98;4.57;;;;;;;25.61;35.25;99627.28;5083683;28;20052;-62
2023/05/28 09:23:00;;;;;;;15.35;5.03;;;;;;;25.38;35.85;99628.72;5085087;28;20044;-62
2023/05/28 09:25:47;;;;;;;11.43;4.72;;;;;;;24.46;37.17;99626.44;5077058;28;20055;-62
2023/05/28 09:28:18;;;;;;;11.13;4.90;;;;;;;25.94;36.11;99626.59;5090719;28;20063;-62
2023/05/28 09:30:45;;;;;;;13.55;5.32;;;;;;;24.95;36.83;99621.47;5083453;28;20052;-62
2023/05/28 09:33:13;;;;;;;12.45;4.38;;;;;;;25.13;36.99;99620.25;5071750;28;20044;-62
2023/05/28 09:35:40;;;;;;;10.30;4.80;;;;;;;24.51;37.93;99612.56;5072465;28;20056;-62
2023/05/28 09:38:07;;;;;;;9.50;4.28;;;;;;;23.63;39.08;99619.16;5083264;28;20127;-62
2023/05/28 09:40:38;;;;;;;8.35;4.75;;;;;;;24.22;38.58;99613.25;5078653;28;20490;-62
2023/05/28 09:43:08;;;;;;;10.32;4.55;;;;;;;24.04;38.77;99609.75;5074137;28;20154;-62
2023/05/28 09:45:35;;;;;;;10.18;4.32;;;;;;;25.22;38.23;99595.56;5085065;28;20059;-62
2023/05/28 09:48:02;;;;;;;8.38;4.32;;;;;;;26.19;36.69;99601.97;5077410;28;20048;-62
2023/05/28 09:50:29;;;;;;;11.52;4.85;;;;;;;26.90;36.05;99604.44;5081894;28;20127;-62
2023/05/28 09:52:57;;;;;;;9.35;4.25;;;;;;;25.50;36.97;99598.63;5077159;28;20113;-62
2023/05/28 09:55:25;;;;;;;13.10;5.00;;;;;;;23.71;39.07;99607.41;5070675;28;20761;-62
2023/05/28 09:57:57;;;;;;;13.63;4.70;;;;;;;25.28;37.82;99599.72;5076147;28;20496;-62
2023/05/28 10:00:31;;;;;;;12.98;4.93;;;;;;;25.61;37.21;99605.31;5078440;28;20044;-62
2023/05/28 10:03:05;;;;;;;13.68;5.18;;;;;;;23.97;39.27;99596.53;5076370;28;20048;-63
2023/05/28 10:05:33;;;;;;;13.77;5.93;;;;;;;25.40;37.84;99599.00;5074093;28;20071;-62
2023/05/28 10:08:01;;;;;;;12.75;5.28;;;;;;;25.54;36.11;99587.78;5079143;28;20040;-62
2023/05/28 10:10:28;;;;;;;14.55;6.18;;;;;;;25.89;36.54;99593.03;5086156;28;20078;-62
2023/05/28 10:12:55;;;;;;;12.80;5.00;;;;;;;26.41;36.19;99593.34;5093010;28;20050;-64
2023/05/28 10:15:22;;;;;;;12.52;4.75;;;;;;;26.08;36.97;99590.59;5100725;28;20452;-66
2023/05/28 10:17:52;;;;;;;12.57;5.40;;;;;;;25.06;38.34;99595.31;5088589;28;20105;-62
2023/05/28 10:20:20;;;;;;;11.45;4.40;;;;;;;23.98;36.78;99589.13;5093508;28;20044;-62
2023/05/28 10:22:47;;;;;;;11.73;4.68;;;;;;;24.57;36.48;99594.06;5100597;28;20044;-62
2023/05/28 10:25:14;;;;;;;11.93;4.47;;;;;;;25.31;36.15;99593.59;5083172;28;20461;-62
2023/05/28 10:27:45;;;;;;;11.25;5.00;;;;;;;24.24;37.25;99587.16;5096680;28;20048;-62
2023/05/28 10:30:13;;;;;;;13.02;4.72;;;;;;;24.26;38.42;99589.56;5103206;28;20043;-64
2023/05/28 10:32:41;;;;;;;14.15;4.80;;;;;;;25.12;38.33;99588.50;5084068;28;20436;-62
2023/05/28 10:35:12;;;;;;;11.85;4.85;;;;;;;26.26;36.27;99583.00;5096443;28;20146;-62
2023/05/28 10:37:39;;;;;;;13.07;5.00;;;;;;;25.20;35.38;99583.31;5103708;28;20044;-62
2023/05/28 10:40:08;;;;;;;10.00;4.43;;;;;;;24.65;35.72;99583.03;5101382;28;20490;-61
2023/05/28 10:42:39;;;;;;;12.52;5.05;;;;;;;25.32;36.05;99586.16;5096487;28;20482;-61
2023/05/28 10:45:07;;;;;;;12.02;4.97;;;;;;;25.25;35.47;99581.19;5103938;28;20502;-61
2023/05/28 10:47:35;;;;;;;10.82;4.65;;;;;;;24.45;36.97;99581.00;5100907;28;20060;-61
2023/05/28 10:50:02;;;;;;;17.50;5.35;;;;;;;24.91;36.27;99582.13;5096441;28;20039;-61
2023/05/28 10:52:31;;;;;;;11.85;5.00;;;;;;;26.11;34.68;99572.63;5096219;28;20047;-61
2023/05/28 10:54:58;;;;;;;13.05;5.55;;;;;;;25.71;34.05;99570.38;5081132;28;20055;-61
2023/05/28 10:57:25;;;;;;;11.20;4.82;;;;;;;24.70;34.96;99577.38;5089409;28;20908;-62
2023/05/28 10:59:52;;;;;;;10.90;4.63;;;;;;;24.67;34.64;99567.09;5097718;28;20039;-62
2023/05/28 11:02:24;;;;;;;14.93;4.72;;;;;;;24.72;34.57;99568.84;5102673;28;20096;-61
2023/05/28 11:04:52;;;;;;;7.90;4.10;;;;;;;23.32;34.73;99561.84;5099237;28;20047;-64
2023/05/28 11:07:20;;;;;;;12.77;4.35;;;;;;;24.89;33.07;99563.28;5100647;28;20314;-63
2023/05/28 11:09:50;;;;;;;11.85;4.65;;;;;;;24.63;34.27;99557.91;5101260;28;20662;-63
2023/05/28 11:12:17;;;;;;;10.93;4.00;;;;;;;24.52;34.12;99567.63;5096069;28;20078;-63
2023/05/28 11:14:44;;;;;;;10.93;4.70;;;;;;;24.33;34.11;99568.75;5101055;28;20046;-63
2023/05/28 11:17:12;;;;;;;9.90;4.00;;;;;;;24.84;33.60;99568.16;5098500;28;20039;-63
2023/05/28 11:19:43;;;;;;;12.23;4.65;;;;;;;24.26;33.41;99560.25;5104146;28;20523;-63
2023/05/28 11:22:10;;;;;;;13.70;4.28;;;;;;;25.39;33.64;99564.50;5096736;28;20055;-63
2023/05/28 11:24:56;;;;;;;10.55;4.40;;;;;;;24.05;34.91;99564.78;5094461;28;20044;-62
2023/05/28 11:27:23;;;;;;;9.77;4.53;;;;;;;23.77;34.30;99567.88;5080910;28;20645;-62
2023/05/28 11:29:51;;;;;;;13.00;4.68;;;;;;;22.73;36.41;99556.66;5096181;28;20367;-62
2023/05/28 11:32:19;;;;;;;10.63;4.85;;;;;;;24.25;34.90;99561.38;5099314;28;20044;-62
2023/05/28 11:34:47;;;;;;;10.60;4.75;;;;;;;22.78;37.56;99559.25;5093146;28;20398;-62
2023/05/28 11:37:14;;;;;;;10.95;4.60;;;;;;;24.49;35.47;99549.91;5101651;28;20097;-62
2023/05/28 11:39:49;;;;;;;9.13;4.65;;;;;;;24.52;36.20;99553.94;5103220;28;20130;-62